Time;durP1;ratioP1;P1;durP2;ratioP2;P2;SDS_P1;SDS_P2;PMS_P1;PMS_P2;Temp;Humidity;BMP_temperature;BMP_pressure;BME280_temperature;BME280_humidity;BME280_pressure;Samples;Min_cycle;Max_cycle;Signal;HPM_P1;HPM_P2
2022/03/24 00:00:39;;;;;;;25.57;21.57;;;10.70;55.00;;;;;;5076898;28;20530;-62
2022/03/24 00:03:07;;;;;;;27.83;22.70;;;10.70;55.20;;;;;;5076517;28;20444;-62
2022/03/24 00:05:34;;;;;;;27.17;23.70;;;10.60;55.20;;;;;;5076576;28;20991;-63
2022/03/24 00:08:01;;;;;;;25.10;21.50;;;10.50;55.20;;;;;;5077116;28;20456;-62
2022/03/24 00:10:29;;;;;;;31.90;23.53;;;10.50;55.60;;;;;;5076325;28;20487;-63
2022/03/24 00:12:57;;;;;;;34.30;22.83;;;10.50;55.70;;;;;;5076009;28;20962;-63
2022/03/24 00:15:24;;;;;;;25.93;22.90;;;10.50;55.70;;;;;;5075812;28;20955;-63
2022/03/24 00:17:51;;;;;;;29.87;23.47;;;10.50;55.80;;;;;;5076041;28;20466;-62
2022/03/24 00:20:18;;;;;;;28.33;23.97;;;10.40;55.80;;;;;;5075976;28;20452;-63
2022/03/24 00:22:44;;;;;;;29.77;23.27;;;10.40;55.90;;;;;;5076062;28;20462;-63
2022/03/24 00:25:12;;;;;;;32.00;25.00;;;10.40;55.90;;;;;;5075822;28;20480;-62
2022/03/24 00:27:39;;;;;;;29.57;24.03;;;10.40;56.60;;;;;;5075992;28;20539;-62
2022/03/24 00:30:08;;;;;;;32.70;22.63;;;10.30;55.90;;;;;;5075878;28;20824;-62
2022/03/24 00:32:36;;;;;;;30.77;25.33;;;10.30;56.00;;;;;;5075723;28;20469;-62
2022/03/24 00:35:03;;;;;;;31.87;25.13;;;10.30;56.10;;;;;;5075919;28;20443;-63
2022/03/24 00:37:31;;;;;;;27.03;22.03;;;10.20;56.10;;;;;;5075254;28;20447;-63
2022/03/24 00:40:00;;;;;;;31.10;23.70;;;10.20;56.20;;;;;;5076161;28;20444;-62
2022/03/24 00:42:27;;;;;;;27.87;22.13;;;10.20;56.30;;;;;;5076225;28;20511;-63
2022/03/24 00:44:54;;;;;;;30.03;21.53;;;10.10;56.20;;;;;;5075923;28;20827;-62
2022/03/24 00:47:22;;;;;;;30.20;24.53;;;10.10;56.40;;;;;;5075526;28;20448;-62
2022/03/24 00:49:48;;;;;;;32.63;25.53;;;10.10;56.60;;;;;;5075577;28;20449;-63
2022/03/24 00:52:16;;;;;;;29.57;23.13;;;10.10;56.70;;;;;;5075868;28;20482;-62
2022/03/24 00:54:42;;;;;;;31.00;24.67;;;10.10;56.70;;;;;;5075810;28;20867;-62
2022/03/24 00:57:09;;;;;;;32.47;25.33;;;10.10;56.60;;;;;;5075772;28;20455;-62
2022/03/24 00:59:36;;;;;;;33.97;24.10;;;10.10;56.60;;;;;;5075416;28;20448;-63
2022/03/24 01:02:03;;;;;;;31.60;24.67;;;10.10;56.70;;;;;;5075390;28;20468;-62
2022/03/24 01:04:31;;;;;;;28.13;24.10;;;10.00;56.70;;;;;;5075249;28;20476;-63
2022/03/24 01:06:58;;;;;;;30.53;22.10;;;10.00;56.80;;;;;;5075067;28;20951;-63
2022/03/24 01:09:24;;;;;;;34.13;22.60;;;10.00;56.90;;;;;;5075180;28;20455;-62
2022/03/24 01:11:51;;;;;;;35.43;22.47;;;9.90;57.60;;;;;;5074579;28;20998;-63
2022/03/24 01:14:18;;;;;;;28.17;23.97;;;9.90;57.70;;;;;;5074972;28;20866;-62
2022/03/24 01:16:45;;;;;;;30.43;23.67;;;9.90;57.80;;;;;;5074955;28;20445;-62
2022/03/24 01:19:14;;;;;;;41.10;23.90;;;9.80;57.80;;;;;;5074509;28;20456;-63
2022/03/24 01:21:43;;;;;;;35.90;23.80;;;9.80;57.70;;;;;;5074590;28;20555;-63
2022/03/24 01:24:10;;;;;;;30.27;23.40;;;9.70;57.80;;;;;;5074605;28;20476;-62
2022/03/24 01:26:37;;;;;;;33.60;23.60;;;9.70;57.90;;;;;;5074866;28;20440;-62
2022/03/24 01:29:04;;;;;;;28.17;22.50;;;9.60;57.90;;;;;;5074597;28;20445;-62
2022/03/24 01:31:33;;;;;;;31.20;22.23;;;9.50;57.80;;;;;;5074413;28;20472;-63
2022/03/24 01:34:00;;;;;;;30.10;22.50;;;9.50;58.00;;;;;;5074486;28;20499;-62
2022/03/24 01:36:27;;;;;;;29.93;23.60;;;9.50;58.30;;;;;;5074443;28;20498;-63
2022/03/24 01:38:55;;;;;;;27.80;21.60;;;9.50;58.50;;;;;;5074346;28;20448;-63
2022/03/24 01:41:22;;;;;;;36.00;22.97;;;9.50;58.70;;;;;;5073822;28;20468;-63
2022/03/24 01:43:49;;;;;;;33.00;22.23;;;9.40;58.70;;;;;;5074161;28;20537;-62
2022/03/24 01:46:21;;;;;;;33.60;21.70;;;9.40;58.80;;;;;;5074138;28;20455;-62
2022/03/24 01:48:48;;;;;;;39.80;24.50;;;9.30;58.90;;;;;;5074033;28;20483;-62
2022/03/24 01:51:15;;;;;;;34.77;23.07;;;9.30;58.90;;;;;;5074119;28;20496;-62
2022/03/24 01:53:42;;;;;;;37.10;23.30;;;9.30;59.10;;;;;;5073849;28;20452;-62
2022/03/24 01:56:11;;;;;;;36.63;23.53;;;9.30;59.10;;;;;;5073753;28;20456;-62
2022/03/24 01:58:39;;;;;;;34.23;22.50;;;9.20;59.20;;;;;;5074119;28;20452;-62
2022/03/24 02:01:27;;;;;;;33.63;23.90;;;9.20;59.30;;;;;;5073982;28;20534;-62
2022/03/24 02:03:55;;;;;;;38.13;23.40;;;9.10;59.30;;;;;;5073635;28;20478;-62
2022/03/24 02:06:22;;;;;;;34.60;22.33;;;9.10;59.30;;;;;;5073693;28;20936;-62
2022/03/24 02:08:49;;;;;;;33.13;23.60;;;9.10;59.40;;;;;;5074110;28;20503;-61
2022/03/24 02:11:17;;;;;;;31.50;22.53;;;9.00;59.60;;;;;;5074162;28;20480;-61
2022/03/24 02:13:44;;;;;;;35.30;24.33;;;9.00;59.50;;;;;;5073842;28;20974;-61
2022/03/24 02:16:12;;;;;;;35.57;23.80;;;9.00;59.70;;;;;;5074496;28;20452;-61
2022/03/24 02:18:38;;;;;;;38.83;24.60;;;9.00;59.70;;;;;;5073921;28;20514;-63
2022/03/24 02:21:05;;;;;;;33.10;23.53;;;9.00;59.80;;;;;;5073635;28;20490;-62
2022/03/24 02:23:33;;;;;;;37.40;25.13;;;9.00;59.80;;;;;;5073529;28;20452;-61
2022/03/24 02:26:02;;;;;;;35.00;24.37;;;8.90;59.70;;;;;;5073649;28;20826;-62
2022/03/24 02:28:30;;;;;;;35.57;23.67;;;8.90;59.80;;;;;;5073592;28;20453;-62
2022/03/24 02:30:57;;;;;;;38.93;24.30;;;8.90;59.90;;;;;;5073538;28;20468;-62
2022/03/24 02:33:24;;;;;;;37.23;24.93;;;8.80;59.90;;;;;;5073655;28;20494;-62
2022/03/24 02:35:51;;;;;;;31.97;22.83;;;8.80;60.00;;;;;;5073220;28;20939;-62
2022/03/24 02:38:19;;;;;;;31.10;21.97;;;8.80;60.20;;;;;;5073518;28;20449;-62
2022/03/24 02:40:49;;;;;;;40.33;24.30;;;8.70;60.30;;;;;;5073402;28;20511;-62
2022/03/24 02:43:18;;;;;;;36.53;24.57;;;8.80;60.50;;;;;;5073289;28;20855;-62
2022/03/24 02:45:46;;;;;;;32.70;23.30;;;8.70;60.40;;;;;;5073002;28;21022;-62
2022/03/24 02:48:13;;;;;;;33.10;22.47;;;8.70;60.40;;;;;;5073301;28;20523;-62
2022/03/24 02:50:40;;;;;;;32.57;23.80;;;8.70;60.40;;;;;;5073240;28;20468;-62
2022/03/24 02:53:07;;;;;;;63.77;25.00;;;8.60;60.50;;;;;;5073199;28;20448;-62
2022/03/24 02:55:34;;;;;;;35.37;23.77;;;8.60;60.80;;;;;;5073184;28;20452;-62
2022/03/24 02:58:02;;;;;;;37.97;23.30;;;8.60;60.80;;;;;;5073239;28;20459;-62
2022/03/24 03:00:29;;;;;;;40.87;24.70;;;8.60;61.20;;;;;;5073277;28;20445;-62
2022/03/24 03:02:56;;;;;;;37.77;24.67;;;8.60;61.00;;;;;;5077027;28;20507;-62
2022/03/24 03:05:23;;;;;;;43.87;25.63;;;8.60;61.00;;;;;;5077458;28;20487;-62
2022/03/24 03:07:51;;;;;;;33.40;21.70;;;8.60;61.10;;;;;;5077515;28;20480;-62
2022/03/24 03:10:18;;;;;;;33.57;22.37;;;8.60;61.20;;;;;;5077394;28;20440;-62
2022/03/24 03:12:46;;;;;;;37.17;23.23;;;8.50;60.90;;;;;;5077279;28;20452;-62
2022/03/24 03:15:15;;;;;;;36.40;22.27;;;8.50;61.10;;;;;;5077343;28;20818;-62
2022/03/24 03:17:41;;;;;;;37.83;24.90;;;8.50;61.20;;;;;;5076712;28;20834;-62
2022/03/24 03:20:10;;;;;;;41.00;24.20;;;8.50;61.10;;;;;;5076628;28;20460;-62
2022/03/24 03:22:37;;;;;;;32.80;23.97;;;8.50;61.30;;;;;;5076952;28;20468;-62
2022/03/24 03:25:05;;;;;;;32.13;23.03;;;8.50;61.50;;;;;;5076784;28;20815;-62
2022/03/24 03:27:32;;;;;;;36.30;22.67;;;8.50;61.80;;;;;;5076822;28;20448;-62
2022/03/24 03:29:59;;;;;;;37.87;23.57;;;8.50;61.70;;;;;;5076812;28;20526;-62
2022/03/24 03:32:27;;;;;;;37.93;24.23;;;8.40;61.60;;;;;;5076822;28;20477;-62
2022/03/24 03:34:54;;;;;;;32.80;22.20;;;8.40;61.90;;;;;;5076455;28;20823;-62
2022/03/24 03:37:20;;;;;;;35.00;21.90;;;8.40;62.00;;;;;;5076631;28;20452;-62
2022/03/24 03:39:47;;;;;;;35.07;22.93;;;8.40;61.90;;;;;;5076685;28;20487;-62
2022/03/24 03:42:14;;;;;;;32.17;21.80;;;8.40;62.00;;;;;;5076732;28;20850;-63
2022/03/24 03:44:41;;;;;;;35.60;22.40;;;8.40;61.90;;;;;;5077005;28;20512;-62
2022/03/24 03:47:08;;;;;;;38.20;23.37;;;8.40;61.90;;;;;;5076535;28;20491;-62
2022/03/24 03:49:37;;;;;;;35.17;23.10;;;8.40;62.10;;;;;;5076776;28;20444;-62
2022/03/24 03:52:05;;;;;;;39.30;22.83;;;8.40;62.40;;;;;;5076583;28;20478;-62
2022/03/24 03:54:32;;;;;;;36.03;22.90;;;8.40;62.70;;;;;;5077196;28;20444;-62
2022/03/24 03:56:59;;;;;;;33.10;22.60;;;8.40;63.00;;;;;;5076346;28;20494;-62
2022/03/24 03:59:25;;;;;;;38.80;22.07;;;8.40;63.20;;;;;;5076310;28;20455;-62
2022/03/24 04:01:54;;;;;;;34.67;23.50;;;8.30;62.80;;;;;;5076369;28;20588;-62
2022/03/24 04:04:21;;;;;;;36.60;24.70;;;8.30;62.80;;;;;;5076235;28;20447;-62
2022/03/24 04:06:49;;;;;;;42.33;23.07;;;8.30;62.80;;;;;;5075817;28;20939;-62
2022/03/24 04:09:15;;;;;;;30.83;21.60;;;8.30;63.00;;;;;;5076636;28;20456;-62
2022/03/24 04:11:42;;;;;;;34.37;21.30;;;8.20;62.60;;;;;;5076256;28;20466;-61
2022/03/24 04:14:09;;;;;;;29.63;22.43;;;8.10;62.30;;;;;;5075783;28;20441;-61
2022/03/24 04:16:36;;;;;;;27.63;20.50;;;8.10;62.70;;;;;;5076058;28;20452;-62
2022/03/24 04:19:05;;;;;;;29.47;20.53;;;8.10;63.00;;;;;;5076121;28;20457;-62
2022/03/24 04:21:31;;;;;;;33.70;22.07;;;8.00;62.60;;;;;;5076502;28;20468;-62
2022/03/24 04:24:00;;;;;;;31.70;20.73;;;8.00;62.60;;;;;;5076168;28;20821;-62
2022/03/24 04:26:26;;;;;;;31.87;21.20;;;8.00;62.80;;;;;;5075890;28;20492;-62
2022/03/24 04:28:53;;;;;;;33.10;23.53;;;8.00;62.80;;;;;;5076017;28;20471;-62
2022/03/24 04:31:22;;;;;;;32.90;21.13;;;8.00;63.00;;;;;;5076045;28;20472;-62
2022/03/24 04:33:49;;;;;;;31.27;20.83;;;7.90;63.00;;;;;;5075898;28;20455;-62
2022/03/24 04:36:16;;;;;;;30.27;19.57;;;7.90;63.20;;;;;;5075804;28;20445;-62
2022/03/24 04:38:42;;;;;;;34.60;21.70;;;7.80;63.00;;;;;;5075887;28;20456;-62
2022/03/24 04:41:11;;;;;;;40.37;23.47;;;7.80;63.30;;;;;;5075810;28;20471;-62
2022/03/24 04:43:38;;;;;;;31.63;22.37;;;7.80;63.40;;;;;;5075796;28;20506;-62
2022/03/24 04:46:05;;;;;;;32.23;19.40;;;7.70;63.60;;;;;;5075866;28;20479;-62
2022/03/24 04:48:35;;;;;;;35.67;22.30;;;7.70;63.80;;;;;;5076099;28;20444;-62
2022/03/24 04:51:05;;;;;;;35.63;22.20;;;7.60;63.90;;;;;;5076160;28;20468;-62
2022/03/24 04:53:31;;;;;;;33.40;22.87;;;7.60;63.80;;;;;;5075668;28;20452;-62
2022/03/24 04:55:58;;;;;;;31.07;21.90;;;7.60;64.10;;;;;;5075993;28;20437;-62
2022/03/24 04:58:27;;;;;;;37.40;20.43;;;7.50;63.90;;;;;;5075948;28;20452;-62
2022/03/24 05:00:54;;;;;;;35.43;20.27;;;7.50;63.90;;;;;;5075980;28;20469;-62
2022/03/24 05:03:20;;;;;;;36.30;22.33;;;7.50;65.20;;;;;;5076667;28;20455;-62
2022/03/24 05:05:47;;;;;;;49.67;25.70;;;7.50;64.50;;;;;;5075931;28;20482;-62
2022/03/24 05:08:14;;;;;;;34.37;22.00;;;7.50;64.90;;;;;;5076205;28;20939;-62
2022/03/24 05:10:41;;;;;;;37.20;23.40;;;7.50;65.10;;;;;;5076500;28;20471;-62
2022/03/24 05:13:08;;;;;;;39.70;23.10;;;7.50;65.50;;;;;;5076201;28;20452;-62
2022/03/24 05:15:36;;;;;;;34.87;21.73;;;7.50;65.60;;;;;;5076028;28;20939;-62
2022/03/24 05:18:04;;;;;;;37.33;24.47;;;7.50;65.50;;;;;;5075543;28;20502;-62
2022/03/24 05:20:31;;;;;;;45.40;26.30;;;7.40;65.70;;;;;;5074725;28;20490;-62
2022/03/24 05:22:57;;;;;;;31.13;21.20;;;7.40;66.00;;;;;;5074471;28;20924;-62
2022/03/24 05:25:25;;;;;;;41.00;24.40;;;7.40;65.70;;;;;;5074072;28;20481;-62
2022/03/24 05:27:58;;;;;;;39.23;24.67;;;7.40;65.30;;;;;;5076032;28;20449;-64
2022/03/24 05:30:25;;;;;;;36.17;19.60;;;7.40;65.60;;;;;;5078740;28;20548;-62
2022/03/24 05:32:53;;;;;;;35.63;23.07;;;7.40;65.60;;;;;;5074676;28;20502;-62
2022/03/24 05:35:19;;;;;;;41.50;22.97;;;7.40;66.00;;;;;;5074141;28;20441;-62
2022/03/24 05:37:46;;;;;;;46.03;24.50;;;7.30;65.90;;;;;;5074433;28;20461;-62
2022/03/24 05:40:13;;;;;;;40.57;24.57;;;7.30;66.10;;;;;;5074153;28;20975;-62
2022/03/24 05:42:40;;;;;;;63.17;26.50;;;7.20;66.20;;;;;;5074179;28;20582;-62
2022/03/24 05:45:07;;;;;;;46.03;25.33;;;7.20;66.30;;;;;;5074231;28;20485;-62
2022/03/24 05:47:34;;;;;;;43.40;23.53;;;7.20;66.50;;;;;;5074319;28;20432;-62
2022/03/24 05:50:02;;;;;;;39.87;24.87;;;7.20;66.60;;;;;;5074217;28;20449;-62
2022/03/24 05:52:29;;;;;;;44.93;24.33;;;7.20;66.80;;;;;;5074175;28;20495;-62
2022/03/24 05:54:56;;;;;;;47.83;23.93;;;7.20;66.60;;;;;;5073813;28;20954;-62
2022/03/24 05:57:23;;;;;;;39.63;25.37;;;7.20;66.80;;;;;;5074028;28;20456;-62
2022/03/24 05:59:50;;;;;;;49.17;23.80;;;7.10;67.60;;;;;;5074049;28;20543;-62
2022/03/24 06:02:17;;;;;;;37.07;22.13;;;7.10;67.10;;;;;;5074200;28;20460;-62
2022/03/24 06:04:44;;;;;;;39.43;24.83;;;7.20;67.20;;;;;;5074265;28;20453;-62
2022/03/24 06:07:14;;;;;;;46.60;23.10;;;7.20;67.10;;;;;;5074291;28;20451;-63
2022/03/24 06:09:40;;;;;;;43.57;22.90;;;7.20;67.00;;;;;;5074094;28;20445;-62
2022/03/24 06:12:10;;;;;;;40.07;23.67;;;7.20;67.40;;;;;;5073761;28;20471;-63
2022/03/24 06:14:37;;;;;;;38.17;24.00;;;7.20;67.30;;;;;;5074149;28;20456;-62
2022/03/24 06:17:05;;;;;;;38.47;24.47;;;7.30;67.70;;;;;;5073803;28;20481;-62
2022/03/24 06:19:35;;;;;;;40.20;24.23;;;7.20;67.60;;;;;;5073621;28;20467;-62
2022/03/24 06:22:02;;;;;;;33.80;23.80;;;7.30;68.20;;;;;;5073900;28;20514;-62
2022/03/24 06:24:30;;;;;;;34.43;22.97;;;7.30;68.40;;;;;;5073724;28;20452;-62
2022/03/24 06:26:57;;;;;;;45.40;25.73;;;7.40;69.00;;;;;;5073554;28;20480;-62
2022/03/24 06:29:24;;;;;;;39.90;24.60;;;7.40;69.10;;;;;;5073778;28;20502;-62
2022/03/24 06:31:51;;;;;;;43.60;27.80;;;7.40;69.10;;;;;;5073551;28;20480;-62
2022/03/24 06:34:18;;;;;;;46.53;25.17;;;7.40;69.10;;;;;;5073458;28;20951;-62
2022/03/24 06:36:44;;;;;;;50.33;28.30;;;7.50;69.70;;;;;;5072377;28;20492;-62
2022/03/24 06:39:11;;;;;;;48.53;27.47;;;7.50;70.00;;;;;;5073404;28;20449;-63
2022/03/24 06:41:39;;;;;;;45.03;28.37;;;7.60;70.10;;;;;;5073284;28;20469;-63
2022/03/24 06:44:07;;;;;;;41.17;27.20;;;7.60;70.20;;;;;;5073430;28;20452;-63
2022/03/24 06:46:34;;;;;;;42.87;27.10;;;7.60;71.00;;;;;;5073519;28;20494;-62
2022/03/24 06:49:01;;;;;;;54.60;29.47;;;7.70;70.50;;;;;;5073198;28;20996;-63
2022/03/24 06:51:28;;;;;;;46.57;29.30;;;7.70;70.70;;;;;;5073356;28;20514;-62
2022/03/24 06:53:54;;;;;;;64.07;30.40;;;7.80;70.90;;;;;;5073243;28;20538;-62
2022/03/24 06:56:21;;;;;;;50.83;27.83;;;7.90;71.50;;;;;;5073235;28;20517;-62
2022/03/24 06:58:50;;;;;;;51.83;29.13;;;7.90;71.80;;;;;;5073221;28;20458;-63
2022/03/24 07:01:17;;;;;;;43.87;28.00;;;8.00;71.50;;;;;;5073126;28;20476;-62
2022/03/24 07:03:44;;;;;;;51.50;32.47;;;8.10;72.10;;;;;;5073304;28;20898;-62
2022/03/24 07:06:11;;;;;;;52.13;32.53;;;8.20;71.20;;;;;;5072867;28;20950;-62
2022/03/24 07:08:39;;;;;;;59.77;35.63;;;8.30;70.60;;;;;;5073188;28;20531;-62
2022/03/24 07:11:06;;;;;;;54.93;33.30;;;8.40;69.90;;;;;;5072801;28;20530;-62
2022/03/24 07:13:33;;;;;;;63.20;34.57;;;8.60;70.40;;;;;;5073348;28;20461;-62
2022/03/24 07:16:01;;;;;;;54.27;32.70;;;8.70;70.00;;;;;;5073240;28;20472;-62
2022/03/24 07:18:28;;;;;;;52.27;35.30;;;8.80;69.20;;;;;;5073770;28;20470;-63
2022/03/24 07:20:55;;;;;;;58.60;37.00;;;8.90;69.00;;;;;;5073330;28;20471;-64
2022/03/24 07:23:21;;;;;;;59.40;37.60;;;9.10;69.70;;;;;;5073179;28;20471;-62
2022/03/24 07:25:48;;;;;;;57.00;36.27;;;9.20;71.30;;;;;;5073193;28;20455;-62
2022/03/24 07:28:15;;;;;;;52.33;36.00;;;9.30;73.20;;;;;;5072979;28;20519;-62
2022/03/24 07:30:44;;;;;;;55.20;36.67;;;9.40;72.80;;;;;;5072971;28;20469;-62
2022/03/24 07:33:12;;;;;;;59.67;34.30;;;9.50;71.90;;;;;;5072841;28;20924;-62
2022/03/24 07:35:39;;;;;;;58.53;36.43;;;9.70;71.50;;;;;;5072954;28;20487;-62
2022/03/24 07:38:09;;;;;;;52.97;36.87;;;9.80;70.90;;;;;;5073073;28;20448;-63
2022/03/24 07:40:36;;;;;;;60.73;36.10;;;9.90;70.50;;;;;;5072947;28;20429;-63
2022/03/24 07:43:03;;;;;;;56.73;37.83;;;10.10;69.10;;;;;;5073316;28;20484;-63
2022/03/24 07:45:30;;;;;;;57.30;36.93;;;10.20;68.50;;;;;;5073790;28;20451;-63
2022/03/24 07:48:14;;;;;;;52.40;37.20;;;10.40;68.00;;;;;;5075676;28;20562;-63
2022/03/24 07:50:43;;;;;;;53.03;37.00;;;10.60;66.20;;;;;;5076747;28;20559;-63
2022/03/24 07:53:33;;;;;;;59.23;37.50;;;10.70;66.60;;;;;;5076873;28;20452;-63
2022/03/24 07:56:00;;;;;;;59.30;38.63;;;10.90;65.60;;;;;;5076478;28;20464;-62
2022/03/24 07:58:27;;;;;;;50.00;36.97;;;11.00;63.60;;;;;;5076750;28;20443;-62
2022/03/24 08:00:57;;;;;;;55.63;38.77;;;11.20;62.80;;;;;;5076661;28;20518;-63
2022/03/24 08:03:25;;;;;;;56.53;37.30;;;11.30;62.40;;;;;;5076702;28;20794;-63
2022/03/24 08:05:52;;;;;;;52.90;36.70;;;11.40;62.60;;;;;;5076661;28;20451;-62
2022/03/24 08:08:20;;;;;;;55.77;38.20;;;11.60;62.30;;;;;;5076168;28;21005;-63
2022/03/24 08:10:49;;;;;;;55.13;37.80;;;11.70;61.60;;;;;;5076310;28;20472;-62
2022/03/24 08:13:18;;;;;;;48.13;36.37;;;11.90;60.20;;;;;;5076568;28;20425;-63
2022/03/24 08:15:45;;;;;;;68.43;38.23;;;12.10;59.80;;;;;;5076388;28;20455;-62
2022/03/24 08:18:14;;;;;;;50.37;37.37;;;12.30;59.00;;;;;;5075851;28;21026;-62
2022/03/24 08:20:43;;;;;;;52.47;37.00;;;12.50;58.50;;;;;;5076229;28;20527;-63
2022/03/24 08:23:13;;;;;;;51.77;38.37;;;12.70;57.30;;;;;;5076152;28;20437;-63
2022/03/24 08:25:40;;;;;;;57.93;39.27;;;12.90;57.10;;;;;;5075954;28;20452;-63
2022/03/24 08:28:08;;;;;;;50.80;38.87;;;13.00;56.30;;;;;;5075660;28;20452;-63
2022/03/24 08:30:35;;;;;;;54.27;40.53;;;13.20;55.30;;;;;;5075990;28;20456;-63
2022/03/24 08:33:01;;;;;;;55.67;39.10;;;13.20;54.00;;;;;;5075898;28;20444;-63
2022/03/24 08:35:28;;;;;;;50.83;38.10;;;13.30;54.10;;;;;;5076012;28;20430;-63
2022/03/24 08:37:56;;;;;;;54.87;39.43;;;13.50;54.20;;;;;;5075739;28;20507;-63
2022/03/24 08:40:23;;;;;;;54.03;39.43;;;13.50;54.00;;;;;;5075590;28;20919;-63
2022/03/24 08:42:50;;;;;;;48.63;39.00;;;13.60;55.20;;;;;;5075619;28;20448;-63
2022/03/24 08:45:17;;;;;;;45.93;36.60;;;13.70;55.00;;;;;;5075624;28;20449;-63
2022/03/24 08:47:44;;;;;;;49.90;36.73;;;13.80;52.30;;;;;;5075759;28;20445;-63
2022/03/24 08:50:12;;;;;;;45.70;36.00;;;13.80;50.90;;;;;;5075756;28;20479;-63
2022/03/24 08:52:39;;;;;;;46.00;35.73;;;13.90;51.30;;;;;;5075658;28;20471;-64
2022/03/24 08:55:09;;;;;;;44.50;34.90;;;14.00;50.80;;;;;;5075754;28;20848;-63
2022/03/24 08:57:37;;;;;;;47.20;37.13;;;14.00;51.50;;;;;;5075508;28;20473;-63
2022/03/24 09:00:12;;;;;;;50.33;35.87;;;14.10;51.50;;;;;;5074434;28;20449;-63
2022/03/24 09:02:39;;;;;;;46.50;34.70;;;14.20;51.10;;;;;;5075737;28;20476;-63
2022/03/24 09:05:06;;;;;;;46.50;35.97;;;14.30;50.70;;;;;;5075605;28;20912;-63
2022/03/24 09:07:33;;;;;;;40.53;34.23;;;14.50;51.80;;;;;;5075544;28;20468;-64
2022/03/24 09:10:00;;;;;;;45.23;35.13;;;14.70;50.70;;;;;;5075604;28;20431;-64
2022/03/24 09:12:28;;;;;;;42.07;34.10;;;14.80;50.00;;;;;;5074808;28;21066;-64
2022/03/24 09:14:55;;;;;;;47.27;35.90;;;14.90;50.00;;;;;;5075132;28;20531;-63
2022/03/24 09:17:22;;;;;;;46.37;34.80;;;15.10;49.60;;;;;;5075018;28;20491;-64
2022/03/24 09:19:48;;;;;;;53.83;35.97;;;15.30;48.00;;;;;;5074973;28;20464;-64
2022/03/24 09:22:15;;;;;;;45.87;36.60;;;15.40;48.40;;;;;;5074918;28;20827;-63
2022/03/24 09:24:43;;;;;;;45.83;34.30;;;15.50;46.80;;;;;;5075043;28;20477;-63
2022/03/24 09:27:10;;;;;;;41.70;35.57;;;15.60;46.40;;;;;;5075629;28;20448;-63
2022/03/24 09:29:38;;;;;;;44.83;37.43;;;15.70;46.10;;;;;;5074742;28;20459;-64
2022/03/24 09:32:09;;;;;;;45.87;35.33;;;15.90;47.40;;;;;;5074233;28;20820;-63
2022/03/24 09:34:36;;;;;;;48.93;37.13;;;16.00;45.70;;;;;;5074292;28;20486;-65
2022/03/24 09:37:02;;;;;;;47.77;37.07;;;16.10;44.10;;;;;;5074476;28;20468;-64
2022/03/24 09:39:29;;;;;;;40.83;36.07;;;16.20;46.00;;;;;;5074410;28;20809;-63
2022/03/24 09:41:56;;;;;;;43.53;36.00;;;16.30;44.70;;;;;;5074441;28;20468;-64
2022/03/24 09:44:24;;;;;;;51.27;36.33;;;16.60;44.70;;;;;;5074357;28;20445;-63
2022/03/24 09:46:52;;;;;;;40.30;33.87;;;16.80;44.50;;;;;;5074448;28;20491;-63
2022/03/24 09:49:19;;;;;;;42.10;35.00;;;16.90;45.00;;;;;;5074690;28;20429;-64
2022/03/24 09:51:46;;;;;;;45.80;35.60;;;17.10;43.70;;;;;;5074476;28;20469;-64
2022/03/24 09:54:14;;;;;;;44.50;36.50;;;17.30;43.10;;;;;;5074439;28;20536;-64
2022/03/24 09:56:41;;;;;;;47.90;36.97;;;17.50;43.20;;;;;;5073901;28;20491;-64
2022/03/24 09:59:09;;;;;;;41.73;35.57;;;17.80;44.20;;;;;;5074366;28;20444;-64
2022/03/24 10:01:39;;;;;;;45.10;36.20;;;18.20;43.50;;;;;;5074644;28;20477;-64
2022/03/24 10:04:09;;;;;;;47.40;38.10;;;18.50;42.50;;;;;;5074406;28;20548;-64
2022/03/24 10:06:39;;;;;;;44.03;35.77;;;18.80;43.30;;;;;;5076332;28;20463;-64
2022/03/24 10:09:06;;;;;;;47.67;38.67;;;19.10;42.00;;;;;;5074909;28;20449;-65
2022/03/24 10:11:35;;;;;;;43.10;37.10;;;19.50;41.00;;;;;;5074148;28;20465;-64
2022/03/24 10:14:02;;;;;;;44.63;36.23;;;19.80;39.30;;;;;;5074461;28;20520;-65
2022/03/24 10:16:44;;;;;;;43.53;35.63;;;19.90;39.00;;;;;;5074427;28;20476;-64
2022/03/24 10:19:15;;;;;;;41.57;37.00;;;20.00;38.20;;;;;;5074151;28;20456;-64
2022/03/24 10:21:44;;;;;;;44.60;37.50;;;20.20;38.90;;;;;;5074214;28;21009;-65
2022/03/24 10:24:13;;;;;;;40.97;35.83;;;20.50;37.70;;;;;;5074606;28;20444;-64
2022/03/24 10:26:41;;;;;;;43.30;37.90;;;20.90;37.40;;;;;;5074699;28;20802;-65
2022/03/24 10:29:09;;;;;;;42.40;37.80;;;21.40;36.80;;;;;;5074681;28;20494;-65
2022/03/24 10:31:37;;;;;;;40.93;36.50;;;22.00;36.10;;;;;;5074600;28;20508;-65
2022/03/24 10:34:06;;;;;;;38.07;33.97;;;22.60;32.10;;;;;;5074614;28;20844;-64
2022/03/24 10:36:35;;;;;;;37.47;33.47;;;23.00;29.90;;;;;;5073964;28;20485;-65
2022/03/24 10:39:04;;;;;;;40.00;35.83;;;23.50;29.80;;;;;;5074172;28;20454;-64
2022/03/24 10:41:32;;;;;;;37.70;34.00;;;24.00;28.60;;;;;;5074170;28;20504;-65
2022/03/24 10:44:04;;;;;;;36.63;32.73;;;24.30;28.40;;;;;;5073822;28;20527;-65
2022/03/24 10:46:33;;;;;;;38.73;34.17;;;24.80;28.20;;;;;;5073825;28;20448;-65
2022/03/24 10:49:15;;;;;;;36.63;33.10;;;25.50;27.10;;;;;;5073528;28;20441;-65
2022/03/24 10:51:44;;;;;;;34.73;31.10;;;26.30;26.60;;;;;;5073448;28;20464;-65
2022/03/24 10:54:21;;;;;;;33.07;29.67;;;26.90;24.70;;;;;;5073688;28;20452;-65
2022/03/24 10:56:56;;;;;;;32.43;29.10;;;27.30;23.60;;;;;;5073379;28;20472;-65
2022/03/24 10:59:25;;;;;;;30.87;28.03;;;27.60;23.00;;;;;;5073189;28;20800;-65
2022/03/24 11:01:53;;;;;;;32.60;29.60;;;27.40;21.30;;;;;;5073501;28;20468;-65
2022/03/24 11:04:20;;;;;;;30.63;27.63;;;27.20;21.60;;;;;;5073467;28;20460;-65
2022/03/24 11:06:52;;;;;;;23.80;21.50;;;27.40;22.50;;;;;;5073359;28;20428;-65
2022/03/24 11:09:24;;;;;;;24.67;22.17;;;27.60;20.10;;;;;;5073273;28;20467;-65
2022/03/24 11:12:26;;;;;;;24.17;21.60;;;27.90;20.00;;;;;;5073385;28;20487;-66
2022/03/24 11:14:55;;;;;;;23.67;21.03;;;28.50;20.20;;;;;;5074304;28;20432;-65
2022/03/24 11:17:24;;;;;;;21.53;17.47;;;29.10;19.90;;;;;;5073409;28;20487;-65
2022/03/24 11:19:56;;;;;;;23.70;18.40;;;29.40;17.50;;;;;;5072658;28;20468;-65
2022/03/24 11:22:40;;;;;;;20.20;18.20;;;29.00;18.10;;;;;;5074300;28;20508;-65
2022/03/24 11:25:08;;;;;;;21.67;19.37;;;28.90;17.70;;;;;;5077117;28;20437;-65
2022/03/24 11:27:36;;;;;;;21.23;18.90;;;28.90;18.40;;;;;;5077166;28;20459;-65
2022/03/24 11:30:06;;;;;;;22.10;19.97;;;28.80;18.70;;;;;;5077311;28;20779;-66
2022/03/24 11:32:34;;;;;;;22.90;20.60;;;28.80;17.40;;;;;;5077132;28;20535;-65
2022/03/24 11:35:02;;;;;;;22.70;20.60;;;28.80;18.90;;;;;;5076704;28;20882;-66
2022/03/24 11:37:29;;;;;;;21.00;18.83;;;28.60;18.50;;;;;;5077644;28;21020;-66
2022/03/24 11:40:05;;;;;;;20.30;18.10;;;28.80;19.20;;;;;;5077748;28;20455;-66
2022/03/24 11:42:34;;;;;;;20.40;18.03;;;29.40;18.80;;;;;;5076891;28;20831;-66
2022/03/24 11:45:09;;;;;;;21.20;18.83;;;29.60;17.80;;;;;;5076901;28;20448;-65
2022/03/24 11:47:52;;;;;;;14.07;12.53;;;30.40;17.30;;;;;;5076693;28;20844;-63
2022/03/24 11:50:33;;;;;;;17.17;13.37;;;30.90;15.70;;;;;;5076620;28;20531;-64
2022/03/24 11:53:15;;;;;;;23.80;20.33;;;30.60;14.80;;;;;;5076691;28;20433;-64
2022/03/24 11:56:05;;;;;;;22.37;20.07;;;29.70;15.80;;;;;;5077025;28;20433;-66
2022/03/24 11:58:38;;;;;;;24.57;21.97;;;29.40;16.70;;;;;;5075853;28;20491;-66
2022/03/24 12:01:30;;;;;;;24.77;22.37;;;29.80;16.70;;;;;;5076378;28;20525;-66
2022/03/24 12:04:04;;;;;;;25.33;22.63;;;30.00;16.90;;;;;;5076418;28;20450;-66
2022/03/24 12:06:53;;;;;;;27.83;25.27;;;29.80;15.70;;;;;;5076245;28;20471;-66
2022/03/24 12:09:25;;;;;;;26.43;23.83;;;30.20;16.10;;;;;;5075931;28;20980;-66
2022/03/24 12:11:53;;;;;;;24.07;21.77;;;30.20;15.00;;;;;;5076198;28;20529;-67
2022/03/24 12:14:22;;;;;;;26.73;24.10;;;30.60;15.70;;;;;;5075003;28;20433;-66
2022/03/24 12:16:52;;;;;;;29.77;23.90;;;31.20;14.90;;;;;;5075915;28;20444;-66
2022/03/24 12:19:41;;;;;;;27.73;24.77;;;31.70;15.20;;;;;;5075718;28;20463;-66
2022/03/24 12:22:31;;;;;;;28.03;25.43;;;31.90;15.10;;;;;;5076100;28;20468;-66
2022/03/24 12:25:22;;;;;;;27.70;24.73;;;32.30;14.70;;;;;;5076162;28;20524;-66
2022/03/24 12:28:04;;;;;;;25.50;23.30;;;32.40;13.90;;;;;;5076159;28;20879;-66
2022/03/24 12:30:46;;;;;;;30.77;27.90;;;32.60;13.70;;;;;;5076148;28;20438;-66
2022/03/24 12:33:17;;;;;;;29.30;26.50;;;32.60;14.00;;;;;;5075254;28;20954;-67
2022/03/24 12:35:46;;;;;;;29.03;26.23;;;32.80;13.70;;;;;;5075123;28;20460;-66
2022/03/24 12:38:27;;;;;;;27.23;24.50;;;33.40;13.80;;;;;;5076039;28;20515;-66
2022/03/24 12:41:21;;;;;;;32.87;29.93;;;34.00;14.60;;;;;;5076003;28;20820;-66